Flight Track Log - Related Links

Times and Time Zones

All times are in EDT time to prevent confusion due to time zone crossing. See the THY2455 flight status page for this flight to view local times or setup timezone preferences in your user account.


Time Position Orientation Groundspeed Altitude Reporting Facility
EDT Latitude Longitude Course Direction KTS MPH feet Rate Location/Type
Thu 01:48:00 AM 37.3648 34.7147 311° West  Level Estimated
Thu 01:49:00 AM 37.4193 34.6335 310° West  Level Estimated
Thu 01:50:00 AM 37.4737 34.5521 310° West  Level Estimated
Thu 01:51:00 AM 37.5280 34.4706 310° West  Level Estimated
Thu 01:52:00 AM 37.5823 34.3890 310° West  Level Estimated
Thu 01:53:00 AM 37.6365 34.3072 310° West  Level Estimated
Thu 01:54:00 AM 37.6907 34.2253 310° West  Level Estimated
Thu 01:55:00 AM 37.7448 34.1433 310° West  Level Estimated
Thu 01:56:00 AM 37.7988 34.0612 310° West  Level Estimated
Thu 01:57:00 AM 37.8528 33.9790 310° West  Level Estimated
Thu 01:58:00 AM 37.9068 33.8966 310° West  Level Estimated
Thu 01:59:00 AM 37.9607 33.8142 310° West  Level Estimated
Thu 02:00:00 AM 38.0145 33.7316 310° West  Level Estimated
Thu 02:01:00 AM 38.0682 33.6489 310° West  Level Estimated
Thu 02:02:00 AM 38.1219 33.5661 310° West  Level Estimated
Thu 02:03:00 AM 38.1756 33.4831 309° West  Level Estimated
Thu 02:04:00 AM 38.2292 33.4000 309° West  Level Estimated
Thu 02:05:00 AM 38.2827 33.3168 309° West  Level Estimated
Thu 02:06:00 AM 38.3362 33.2335 309° West  Level Estimated
Thu 02:07:00 AM 38.3896 33.1500 309° West  Level Estimated
Thu 02:08:00 AM 38.4430 33.0665 309° West  Level Estimated
Thu 02:09:00 AM 38.4963 32.9828 309° West  Level Estimated
Thu 02:10:00 AM 38.5495 32.8990 309° West  Level Estimated
Thu 02:11:00 AM 38.6027 32.8150 309° West  Level Estimated
Thu 02:12:00 AM 38.6558 32.7309 309° West  Level Estimated
Thu 02:13:00 AM 38.7089 32.6468 309° West  Level Estimated
Thu 02:14:00 AM 38.7618 32.5625 309° West  Level Estimated
Thu 02:15:00 AM 38.8148 32.4780 309° West  Level Estimated
Thu 02:16:00 AM 38.8676 32.3934 309° West  Level Estimated
Thu 02:17:00 AM 38.9204 32.3088 309° West  Level Estimated
Thu 02:18:00 AM 38.9732 32.2239 309° West  Level Estimated
Thu 02:19:00 AM 39.0259 32.1390 309° West  Level Estimated
Thu 02:20:00 AM 39.0785 32.0539 309° West  Level Estimated
Thu 02:21:00 AM 39.1311 31.9687 309° West  Level Estimated
Thu 02:22:00 AM 39.1836 31.8834 308° West  Level Estimated
Thu 02:23:00 AM 39.2360 31.7980 308° West  Level Estimated
Thu 02:24:00 AM 39.2884 31.7124 308° West  Level Estimated
Thu 02:25:00 AM 39.3407 31.6267 308° West  Level Estimated
Thu 02:26:00 AM 39.3930 31.5408 308° West  Level Estimated
Thu 02:27:00 AM 39.4452 31.4549 308° West  Level Estimated
Thu 02:28:00 AM 39.4973 31.3688 308° West  Level Estimated
Thu 02:29:00 AM 39.5494 31.2826 308° West  Level Estimated
Thu 02:30:00 AM 39.6014 31.1962 308° West  Level Estimated
Thu 02:31:00 AM 39.6533 31.1097 308° West  Level Estimated
Thu 02:32:00 AM 39.7052 31.0231 308° West  Level Estimated
Thu 02:33:00 AM 39.7570 30.9364 308° West  Level Estimated
Thu 02:34:00 AM 39.8087 30.8495 308° West  Level Estimated
Thu 02:35:00 AM 39.8604 30.7625 308° West  Level Estimated
Thu 02:36:00 AM 39.9120 30.6754 308° West  Level Estimated
Thu 02:37:00 AM 39.9636 30.5881 308° West  Level Estimated
Thu 02:38:00 AM 40.0150 30.5007 308° West  Level Estimated
Thu 02:39:00 AM 40.0664 30.4132 308° West  Level Estimated
Thu 02:40:00 AM 40.1178 30.3255 307° West  Level Estimated
Thu 02:41:00 AM 40.1691 30.2377 307° West  Level Estimated
Thu 02:42:00 AM 40.2203 30.1498 307° West  Level Estimated
Thu 02:43:00 AM 40.2715 30.0617 307° West  Level Estimated
Thu 02:44:00 AM 40.3225 29.9735 307° West  Level Estimated
Thu 02:45:00 AM 40.3736 29.8852 307° West  Level Estimated
Thu 02:46:00 AM 40.4245 29.7967 307° West  Level Estimated
Thu 02:47:00 AM 40.4754 29.7082 307° West  Level Estimated
Thu 02:48:00 AM 40.5262 29.6194 307° West  Level Estimated
Thu 02:49:00 AM 40.5769 29.5306 307° West  Level Estimated
Thu 02:50:00 AM 40.6276 29.4416 307° West  Level Estimated
Thu 02:51:00 AM 40.6782 29.3524 307° West  Level Estimated
Thu 02:52:00 AM 40.7288 29.2632 307° West  Level Estimated
Thu 02:53:00 AM 40.7792 29.1737 307° West  Level Estimated
Thu 02:54:00 AM 40.8296 29.0842 307° West  Level Estimated
Thu 02:55:00 AM 40.8800 28.9945 307° West  Level Estimated
Thu 02:56:00 AM 40.9302 28.9047 307° West  Level Estimated
Thu 02:57:00 AM 40.9769 28.8211 306° West  Level Estimated
Thu 02:58:00 AM 40.9769 28.8211 21° North  Level Estimated
Thu 02:59:00 AM 40.9769 28.8211 21° North  Level Estimated
Thu 03:00:00 AM 40.9769 28.8211 21° North  Level Estimated
Thu 03:01:00 AM 40.9769 28.8211 21° North  Level Estimated
Thu 03:02:00 AM 40.9769 28.8211 21° North  Level Estimated
Thu 03:03:00 AM 40.9769 28.8211 21° North  Level Estimated
Thu 03:04:00 AM 40.9769 28.8211 21° North  Level Estimated
Thu 03:05:00 AM 40.9769 28.8211 21° North  Level Estimated
Thu 03:06:00 AM 40.9769 28.8211 21° North  Level Estimated
Thu 03:07:00 AM 40.9769 28.8211 21° North  Level Estimated
Thu 03:08:00 AM 40.9769 28.8211 21° North  Level Estimated
Thu 03:09:00 AM 40.9769 28.8211 21° North  Level Estimated
Thu 03:10:00 AM 40.9769 28.8211 21° North  Level Estimated
Thu 03:11:00 AM 40.9769 28.8211 21° North  Level Estimated
Thu 03:12:00 AM 40.9769 28.8211 21° North  Level Estimated
Thu 03:13:00 AM 40.9769 28.8211 21° North  Level Estimated

Login

Don't have an account? Register now (free) for customized features, flight alerts, and more!